createdAt,value
2023-04-20T00:01:27.655Z,94984.97
2023-04-20T00:03:55.757Z,94983.72
2023-04-20T00:06:25.570Z,94986.56
2023-04-20T00:08:53.633Z,94974.84
2023-04-20T00:11:21.587Z,94970.91
2023-04-20T00:13:51.080Z,94971.84
2023-04-20T00:16:19.675Z,94974.53
2023-04-20T00:18:48.187Z,94977.03
2023-04-20T00:21:16.901Z,94983.88
2023-04-20T00:23:44.947Z,94974.13
2023-04-20T00:26:12.951Z,94968.75
2023-04-20T00:28:41.011Z,94967.03
2023-04-20T00:31:11.027Z,94962.00
2023-04-20T00:33:39.017Z,94962.19
2023-04-20T00:36:07.317Z,94962.63
2023-04-20T00:38:35.720Z,94962.19
2023-04-20T00:41:03.897Z,94972.44
2023-04-20T00:43:31.899Z,94963.16
2023-04-20T00:45:59.853Z,94967.25
2023-04-20T00:48:29.231Z,94962.84
2023-04-20T00:50:57.766Z,94963.94
2023-04-20T00:53:25.749Z,94960.97
2023-04-20T00:55:53.804Z,94960.81
2023-04-20T00:58:22.546Z,94957.94
2023-04-20T01:00:50.605Z,94957.19
2023-04-20T01:03:18.845Z,94964.13
2023-04-20T01:05:48.366Z,94962.19
2023-04-20T01:08:16.351Z,94961.41
2023-04-20T01:10:44.384Z,94965.03
2023-04-20T01:13:12.282Z,94958.53
2023-04-20T01:15:40.267Z,94959.50
2023-04-20T01:18:09.694Z,94957.38
2023-04-20T01:20:37.640Z,94951.38
2023-04-20T01:23:06.977Z,94957.47
2023-04-20T01:25:34.939Z,94951.09
2023-04-20T01:28:03.178Z,94958.47
2023-04-20T01:30:31.272Z,94916.03
2023-04-20T01:32:59.304Z,94949.59
2023-04-20T01:35:27.404Z,94953.16
2023-04-20T01:37:55.440Z,94946.00
2023-04-20T01:40:24.821Z,94926.28
2023-04-20T01:42:52.770Z,94937.28
2023-04-20T01:45:20.877Z,94942.59
2023-04-20T01:47:48.875Z,94924.44
2023-04-20T01:50:16.922Z,94934.78
2023-04-20T01:52:44.883Z,94932.00
2023-04-20T01:55:12.898Z,94940.06
2023-04-20T01:57:42.218Z,94931.66
2023-04-20T02:00:11.234Z,94929.94
2023-04-20T02:02:39.353Z,94934.69
2023-04-20T02:05:08.218Z,94930.31
2023-04-20T02:07:36.173Z,94931.13
2023-04-20T02:10:04.667Z,94936.50
2023-04-20T02:12:32.632Z,94925.09
2023-04-20T02:15:01.914Z,94940.31
2023-04-20T02:17:30.088Z,94936.50
2023-04-20T02:19:58.074Z,94932.81
2023-04-20T02:22:26.067Z,94938.09
2023-04-20T02:24:54.029Z,94932.03
2023-04-20T02:27:21.995Z,94941.94
2023-04-20T02:29:50.313Z,94943.38
2023-04-20T02:32:19.674Z,94930.28
2023-04-20T02:34:47.636Z,94929.94
2023-04-20T02:37:15.779Z,94936.91
2023-04-20T02:39:43.799Z,94940.69
2023-04-20T02:42:11.742Z,94940.50
2023-04-20T02:44:39.602Z,94939.41
2023-04-20T02:47:07.671Z,94939.84
2023-04-20T02:49:37.111Z,94942.84
2023-04-20T02:52:05.330Z,94946.22
2023-04-20T02:54:33.344Z,94933.06
2023-04-20T02:57:01.678Z,94937.28
2023-04-20T02:59:29.652Z,94942.66
2023-04-20T03:01:57.752Z,94937.72
2023-04-20T03:04:26.401Z,94941.22
2023-04-20T03:06:55.989Z,94942.00
2023-04-20T03:09:23.898Z,94937.53
2023-04-20T03:11:52.137Z,94940.66
2023-04-20T03:14:20.438Z,94926.75
2023-04-20T03:16:48.542Z,94934.06
2023-04-20T03:19:17.424Z,94929.69
2023-04-20T03:21:46.127Z,94937.78
2023-04-20T03:24:16.246Z,94932.09
2023-04-20T03:26:44.402Z,94933.97
2023-04-20T03:29:12.365Z,94924.16
2023-04-20T03:31:40.447Z,94940.59
2023-04-20T03:34:08.465Z,94911.97
2023-04-20T03:36:36.959Z,94938.03
2023-04-20T03:39:05.757Z,94936.91
2023-04-20T03:41:35.014Z,94942.75
2023-04-20T03:44:02.985Z,94940.84
2023-04-20T03:46:31.044Z,94935.34
2023-04-20T03:48:58.979Z,94940.72
2023-04-20T03:51:27.017Z,94947.47
2023-04-20T03:53:54.998Z,94947.03
2023-04-20T03:56:23.015Z,94926.38
2023-04-20T03:58:52.342Z,94944.00
2023-04-20T04:01:20.418Z,94946.13
2023-04-20T04:03:48.768Z,94944.25
2023-04-20T04:06:17.031Z,94946.13
2023-04-20T04:08:45.049Z,94948.19
2023-04-20T04:11:12.979Z,94949.19
2023-04-20T04:13:40.900Z,94951.53
2023-04-20T04:16:10.272Z,94954.59
2023-04-20T04:18:38.208Z,94955.41
2023-04-20T04:21:08.256Z,94961.88
2023-04-20T04:23:37.375Z,94949.13
2023-04-20T04:26:05.914Z,94954.50
2023-04-20T04:28:33.866Z,94954.09
2023-04-20T04:31:06.272Z,94956.00
2023-04-20T04:33:35.733Z,94950.94
2023-04-20T04:36:04.163Z,94953.94
2023-04-20T04:38:33.440Z,94949.81
2023-04-20T04:41:01.673Z,94952.75
2023-04-20T04:43:31.319Z,94960.91
2023-04-20T04:45:59.544Z,94971.81
2023-04-20T04:48:28.015Z,94971.59
2023-04-20T04:50:57.285Z,94961.13
2023-04-20T04:53:25.235Z,94968.91
2023-04-20T04:55:53.245Z,94969.81
2023-04-20T04:58:21.459Z,94943.63
2023-04-20T05:00:52.022Z,94969.94
2023-04-20T05:03:20.057Z,94938.81
2023-04-20T05:05:48.070Z,94978.94
2023-04-20T05:08:17.543Z,94977.25
2023-04-20T05:10:45.629Z,94984.22
2023-04-20T05:13:13.646Z,94984.34
2023-04-20T05:15:43.358Z,94966.25
2023-04-20T05:18:11.829Z,94963.31
2023-04-20T05:20:39.870Z,94975.56
2023-04-20T05:23:08.872Z,94982.66
2023-04-20T05:25:38.961Z,94976.16
2023-04-20T05:28:07.215Z,94979.19
2023-04-20T05:30:35.309Z,94978.84
2023-04-20T05:33:03.271Z,94978.41
2023-04-20T05:35:31.243Z,94980.41
2023-04-20T05:38:00.502Z,94978.63
2023-04-20T05:40:28.553Z,94967.84
2023-04-20T05:42:57.835Z,94977.88
2023-04-20T05:45:25.869Z,94982.03
2023-04-20T05:47:56.944Z,94989.25
2023-04-20T05:50:25.647Z,94981.59
2023-04-20T05:52:54.269Z,94986.28
2023-04-20T05:55:22.976Z,94966.53
2023-04-20T05:57:52.777Z,94987.75
2023-04-20T06:00:25.729Z,94972.59
2023-04-20T06:02:54.587Z,94987.22
2023-04-20T06:05:22.879Z,94976.66
2023-04-20T06:07:51.001Z,94979.78
2023-04-20T06:10:18.997Z,94986.78
2023-04-20T06:12:47.586Z,94985.28
2023-04-20T06:15:15.553Z,94972.81
2023-04-20T06:17:44.888Z,94944.75
2023-04-20T06:20:13.184Z,94973.03
2023-04-20T06:22:45.411Z,94985.84
2023-04-20T06:25:15.525Z,94972.13
2023-04-20T06:27:43.851Z,94947.09
2023-04-20T06:30:12.939Z,94983.50
2023-04-20T06:32:40.911Z,94982.25
2023-04-20T06:35:10.708Z,94976.41
2023-04-20T06:37:38.940Z,94987.53
2023-04-20T06:40:09.490Z,94981.03
2023-04-20T06:42:37.964Z,94993.38
2023-04-20T06:45:07.561Z,94993.84
2023-04-20T06:47:35.937Z,94998.22
2023-04-20T06:50:07.401Z,94999.78
2023-04-20T06:52:37.882Z,95005.75
2023-04-20T06:55:06.635Z,95009.44
2023-04-20T06:57:34.655Z,95009.69
2023-04-20T07:00:02.877Z,95010.78
2023-04-20T07:02:30.859Z,95012.72
2023-04-20T07:05:02.756Z,95008.09
2023-04-20T07:07:30.940Z,95021.78
2023-04-20T07:10:00.559Z,95011.94
2023-04-20T07:12:29.022Z,95024.28
2023-04-20T07:14:56.971Z,95023.38
2023-04-20T07:17:29.449Z,95019.66
2023-04-20T07:19:58.219Z,95020.34
2023-04-20T07:22:26.690Z,95022.69
2023-04-20T07:24:54.707Z,95024.03
2023-04-20T07:27:24.078Z,94996.72
2023-04-20T07:29:52.154Z,95018.28
2023-04-20T07:32:20.383Z,95019.72
2023-04-20T07:34:48.417Z,95016.31
2023-04-20T07:37:16.412Z,95015.69
2023-04-20T07:39:44.450Z,95011.03
2023-04-20T07:42:12.455Z,94978.78
2023-04-20T07:44:41.757Z,95013.25
2023-04-20T07:47:09.693Z,95002.59
2023-04-20T07:49:38.673Z,94975.50
2023-04-20T07:52:16.270Z,94988.59
2023-04-20T07:54:45.396Z,95006.19
2023-04-20T07:57:13.623Z,95001.31
2023-04-20T07:59:43.522Z,94992.19
2023-04-20T08:02:11.553Z,95001.59
2023-04-20T08:04:40.429Z,95000.97
2023-04-20T08:07:08.737Z,94998.69
2023-04-20T08:09:36.841Z,95001.41
2023-04-20T08:12:05.224Z,95000.50
2023-04-20T08:14:33.718Z,94995.28
2023-04-20T08:17:03.269Z,95005.34
2023-04-20T08:19:31.305Z,95001.88
2023-04-20T08:22:00.652Z,94960.34
2023-04-20T08:24:29.724Z,95000.56
2023-04-20T08:26:59.325Z,95004.41
2023-04-20T08:29:27.664Z,94984.78
2023-04-20T08:31:55.815Z,95007.53
2023-04-20T08:34:25.370Z,95004.81
2023-04-20T08:36:53.444Z,95003.59
2023-04-20T08:39:24.376Z,95003.56
2023-04-20T08:41:54.017Z,95011.88
2023-04-20T08:44:22.260Z,94994.38
2023-04-20T08:46:50.724Z,94975.63
2023-04-20T08:49:20.961Z,94992.91
2023-04-20T08:51:51.559Z,94936.25
2023-04-20T08:54:20.003Z,95010.03
2023-04-20T08:56:49.306Z,94998.00
2023-04-20T08:59:17.726Z,95002.75
2023-04-20T09:01:46.480Z,95006.13
2023-04-20T09:04:19.563Z,95002.28
2023-04-20T09:06:50.267Z,94990.41
2023-04-20T09:09:20.396Z,95000.41
2023-04-20T09:11:48.875Z,94993.06
2023-04-20T09:14:18.524Z,94996.09
2023-04-20T09:16:54.363Z,94994.72
2023-04-20T09:19:25.699Z,95007.41
2023-04-20T09:21:54.859Z,94980.19
2023-04-20T09:24:31.449Z,94987.69
2023-04-20T09:26:59.434Z,94995.34
2023-04-20T09:29:27.885Z,94987.91
2023-04-20T09:31:56.288Z,94990.16
2023-04-20T09:34:25.774Z,94984.59
2023-04-20T09:36:55.977Z,94985.84
2023-04-20T09:39:26.970Z,94983.53
2023-04-20T09:42:05.372Z,94970.72
2023-04-20T09:44:34.121Z,94966.97
2023-04-20T09:47:02.142Z,94982.22
2023-04-20T09:49:30.826Z,94980.38
2023-04-20T09:52:02.801Z,94972.31
2023-04-20T09:54:32.648Z,94975.66
2023-04-20T09:57:01.784Z,94973.78
2023-04-20T09:59:30.552Z,94966.34
2023-04-20T10:01:58.531Z,94957.38
2023-04-20T10:04:26.984Z,94973.97
2023-04-20T10:06:58.022Z,94967.31
2023-04-20T10:09:27.437Z,94959.69
2023-04-20T10:12:07.108Z,94955.22
2023-04-20T10:14:35.718Z,94955.91
2023-04-20T10:17:05.751Z,94940.19
2023-04-20T10:19:41.209Z,94948.25
2023-04-20T10:22:10.453Z,94949.94
2023-04-20T10:24:39.114Z,94943.41
2023-04-20T10:27:19.446Z,94952.41
2023-04-20T10:29:47.867Z,94941.03
2023-04-20T10:32:26.962Z,94934.75
2023-04-20T10:35:06.582Z,94943.50
2023-04-20T10:37:37.714Z,94930.97
2023-04-20T10:40:08.118Z,94947.41
2023-04-20T10:42:44.912Z,94926.88
2023-04-20T10:45:13.648Z,94950.31
2023-04-20T10:47:41.978Z,94928.50
2023-04-20T10:50:12.201Z,94939.38
2023-04-20T10:52:42.676Z,94943.91
2023-04-20T10:55:21.101Z,94904.28
2023-04-20T10:57:50.578Z,94936.28
2023-04-20T11:00:20.550Z,94944.84
2023-04-20T11:02:52.829Z,94902.50
2023-04-20T11:05:21.773Z,94936.72
2023-04-20T11:07:53.334Z,94913.94
2023-04-20T11:10:22.145Z,94938.97
2023-04-20T11:12:52.142Z,94921.31
2023-04-20T11:15:20.099Z,94921.19
2023-04-20T11:17:48.153Z,94931.75
2023-04-20T11:20:17.718Z,94926.22
2023-04-20T11:22:57.376Z,94912.50
2023-04-20T11:25:25.385Z,94925.88
2023-04-20T11:27:54.837Z,94924.97
2023-04-20T11:30:22.859Z,94902.22
2023-04-20T11:32:55.910Z,94859.13
2023-04-20T11:35:24.136Z,94910.09
2023-04-20T11:37:53.812Z,94910.13
2023-04-20T11:40:22.047Z,94908.59
2023-04-20T11:42:50.954Z,94896.91
2023-04-20T11:45:20.272Z,94916.66
2023-04-20T11:47:49.474Z,94898.47
2023-04-20T11:50:17.554Z,94908.22
2023-04-20T11:52:45.531Z,94908.34
2023-04-20T11:55:13.435Z,94912.03
2023-04-20T11:57:41.405Z,94902.31
2023-04-20T12:00:10.760Z,94902.84
2023-04-20T12:02:40.232Z,94908.78
2023-04-20T12:05:09.070Z,94906.50
2023-04-20T12:07:37.091Z,94903.53
2023-04-20T12:10:05.393Z,94913.91
2023-04-20T12:12:34.081Z,94914.13
2023-04-20T12:15:01.981Z,94915.47
2023-04-20T12:17:30.026Z,94907.63
2023-04-20T12:19:59.399Z,94911.66
2023-04-20T12:22:27.567Z,94916.25
2023-04-20T12:24:55.476Z,94878.03
2023-04-20T12:27:23.561Z,94920.78
2023-04-20T12:29:51.510Z,94916.84
2023-04-20T12:32:19.658Z,94910.91
2023-04-20T12:34:47.621Z,94914.53
2023-04-20T12:37:16.972Z,94917.44
2023-04-20T12:39:44.944Z,94907.22
2023-04-20T12:42:12.962Z,94907.38
2023-04-20T12:44:41.040Z,94901.78
2023-04-20T12:47:10.369Z,94896.38
2023-04-20T12:49:38.443Z,94897.19
2023-04-20T12:52:08.105Z,94911.69
2023-04-20T12:54:37.733Z,94907.81
2023-04-20T12:57:05.775Z,94878.38
2023-04-20T12:59:33.781Z,94905.44
2023-04-20T13:02:02.579Z,94907.69
2023-04-20T13:04:30.838Z,94907.56
2023-04-20T13:06:58.947Z,94905.63
2023-04-20T13:09:28.312Z,94901.50
2023-04-20T13:11:57.976Z,94900.56
2023-04-20T13:14:26.631Z,94900.56
2023-04-20T13:16:55.539Z,94900.81
2023-04-20T13:19:24.148Z,94888.34
2023-04-20T13:21:52.170Z,94879.69
2023-04-20T13:24:20.565Z,94906.25
2023-04-20T13:26:48.887Z,94900.63
2023-04-20T13:29:18.415Z,94904.94
2023-04-20T13:31:47.605Z,94906.91
2023-04-20T13:34:15.833Z,94888.97
2023-04-20T13:36:44.321Z,94894.38
2023-04-20T13:39:13.467Z,94911.94
2023-04-20T13:41:41.435Z,94904.31
2023-04-20T13:44:15.867Z,94908.44
2023-04-20T13:46:46.439Z,94906.66
2023-04-20T13:49:15.582Z,94900.00
2023-04-20T13:51:43.859Z,94902.88
2023-04-20T13:54:12.033Z,94897.56
2023-04-20T13:56:40.038Z,94899.88
2023-04-20T13:59:08.031Z,94903.31
2023-04-20T14:01:36.894Z,94894.78
2023-04-20T14:04:06.762Z,94898.78
2023-04-20T14:06:35.007Z,94892.63
2023-04-20T14:09:03.045Z,94907.91
2023-04-20T14:11:31.033Z,94899.09
2023-04-20T14:13:59.066Z,94901.53
2023-04-20T14:16:27.346Z,94888.84
2023-04-20T14:18:55.383Z,94903.34
2023-04-20T14:21:24.798Z,94913.50
2023-04-20T14:23:54.674Z,94901.78
2023-04-20T14:26:22.748Z,94904.94
2023-04-20T14:28:52.588Z,94907.28
2023-04-20T14:31:20.894Z,94906.56
2023-04-20T14:33:48.963Z,94904.31
2023-04-20T14:36:16.878Z,94916.00
2023-04-20T14:38:46.282Z,94910.63
2023-04-20T14:41:14.263Z,94919.16
2023-04-20T14:43:42.246Z,94912.94
2023-04-20T14:46:12.683Z,94891.91
2023-04-20T14:48:42.035Z,94912.63
2023-04-20T14:51:12.233Z,94906.91
2023-04-20T14:53:40.302Z,94913.22
2023-04-20T14:56:09.801Z,94907.56
2023-04-20T14:58:38.394Z,94922.53
2023-04-20T15:01:06.876Z,94920.09
2023-04-20T15:03:34.995Z,94921.16
2023-04-20T15:06:04.178Z,94924.69
2023-04-20T15:08:32.240Z,94913.06
2023-04-20T15:11:02.149Z,94799.13
2023-04-20T15:13:31.479Z,94916.41
2023-04-20T15:15:59.705Z,94906.00
2023-04-20T15:18:27.966Z,94907.94
2023-04-20T15:20:55.936Z,94910.94
2023-04-20T15:23:24.795Z,94903.59
2023-04-20T15:25:53.685Z,94904.31
2023-04-20T15:28:21.749Z,94896.16
2023-04-20T15:30:51.347Z,94912.03
2023-04-20T15:33:19.668Z,94911.31
2023-04-20T15:35:50.860Z,94892.53
2023-04-20T15:38:18.933Z,94901.88
2023-04-20T15:40:47.821Z,94870.34
2023-04-20T15:43:15.835Z,94901.75
2023-04-20T15:45:44.893Z,94893.84
2023-04-20T15:48:14.386Z,94904.81
2023-04-20T15:50:42.517Z,94903.25
2023-04-20T15:53:10.477Z,94904.03
2023-04-20T15:55:40.052Z,94898.63
2023-04-20T15:58:08.007Z,94902.47
2023-04-20T16:00:37.000Z,94904.94
2023-04-20T16:03:05.874Z,94897.09
2023-04-20T16:05:38.475Z,94912.03
2023-04-20T16:08:06.734Z,94905.06
2023-04-20T16:10:37.840Z,94905.47
2023-04-20T16:13:06.289Z,94904.31
2023-04-20T16:15:34.207Z,94908.97
2023-04-20T16:18:05.074Z,94905.78
2023-04-20T16:20:34.662Z,94904.66
2023-04-20T16:23:04.069Z,94903.06
2023-04-20T16:25:34.111Z,94874.75
2023-04-20T16:28:02.292Z,94900.25
2023-04-20T16:30:30.411Z,94884.75
2023-04-20T16:32:59.919Z,94902.34
2023-04-20T16:35:28.170Z,94894.22
2023-04-20T16:37:56.676Z,94896.94
2023-04-20T16:40:26.717Z,94886.69
2023-04-20T16:42:55.430Z,94888.69
2023-04-20T16:45:23.393Z,94888.69
2023-04-20T16:47:52.491Z,94893.81
2023-04-20T16:50:20.734Z,94891.81
2023-04-20T16:52:49.076Z,94890.22
2023-04-20T16:55:17.285Z,94842.00
2023-04-20T16:57:46.751Z,94888.97
2023-04-20T17:00:15.978Z,94899.41
2023-04-20T17:02:44.067Z,94892.34
2023-04-20T17:05:12.492Z,94882.03
2023-04-20T17:07:40.880Z,94891.38
2023-04-20T17:10:09.460Z,94900.25
2023-04-20T17:12:38.825Z,94895.16
2023-04-20T17:15:11.386Z,94890.44
2023-04-20T17:17:39.477Z,94899.38
2023-04-20T17:20:08.932Z,94882.66
2023-04-20T17:22:37.451Z,94901.28
2023-04-20T17:25:07.763Z,94899.31
2023-04-20T17:27:36.659Z,94901.28
2023-04-20T17:30:05.655Z,94859.84
2023-04-20T17:32:35.488Z,94886.19
2023-04-20T17:35:03.761Z,94861.34
2023-04-20T17:37:31.798Z,94897.41
2023-04-20T17:39:59.774Z,94898.53
2023-04-20T17:42:28.192Z,94887.16
2023-04-20T17:44:56.329Z,94895.75
2023-04-20T17:47:24.389Z,94900.31
2023-04-20T17:49:54.109Z,94868.00
2023-04-20T17:52:25.275Z,94907.66
2023-04-20T17:54:54.660Z,94906.91
2023-04-20T17:57:22.713Z,94917.88
2023-04-20T17:59:50.808Z,94915.16
2023-04-20T18:02:19.062Z,94901.81
2023-04-20T18:04:47.338Z,94913.56
2023-04-20T18:07:17.935Z,94920.63
2023-04-20T18:09:47.157Z,94919.84
2023-04-20T18:12:15.410Z,94918.72
2023-04-20T18:14:44.818Z,94922.13
2023-04-20T18:17:13.369Z,94920.56
2023-04-20T18:19:43.182Z,94917.13
2023-04-20T18:22:13.558Z,94913.50
2023-04-20T18:24:43.209Z,94909.16
2023-04-20T18:27:11.557Z,94922.84
2023-04-20T18:29:39.621Z,94928.25
2023-04-20T18:32:13.202Z,94927.22
2023-04-20T18:34:43.718Z,94931.47
2023-04-20T18:37:14.179Z,94939.84
2023-04-20T18:39:50.808Z,94889.97
2023-04-20T18:42:21.063Z,94942.78
2023-04-20T18:44:51.537Z,94943.06
2023-04-20T18:47:21.372Z,94947.97
2023-04-20T18:49:56.004Z,94924.31
2023-04-20T18:52:26.857Z,94942.25
2023-04-20T18:54:57.886Z,94941.75
2023-04-20T18:57:30.211Z,94944.38
2023-04-20T18:59:58.681Z,94937.25
2023-04-20T19:02:27.144Z,94959.06
2023-04-20T19:04:55.775Z,94947.72
2023-04-20T19:07:33.664Z,94956.63
2023-04-20T19:10:03.114Z,94954.59
2023-04-20T19:12:31.619Z,94954.19
2023-04-20T19:15:04.671Z,94951.81
2023-04-20T19:17:33.186Z,94957.75
2023-04-20T19:20:01.496Z,94911.00
2023-04-20T19:22:30.304Z,94954.34
2023-04-20T19:24:58.832Z,94960.44
2023-04-20T19:27:28.591Z,94930.28
2023-04-20T19:29:58.523Z,94954.97
2023-04-20T19:32:27.994Z,94952.31
2023-04-20T19:34:59.233Z,94918.00
2023-04-20T19:37:27.811Z,94874.16
2023-04-20T19:39:56.218Z,94966.00
2023-04-20T19:42:42.578Z,94940.97
2023-04-20T19:45:12.876Z,94961.91
2023-04-20T19:47:41.087Z,94960.75
2023-04-20T19:50:12.328Z,94945.69
2023-04-20T19:52:42.875Z,94958.97
2023-04-20T19:55:14.557Z,94961.94
2023-04-20T19:57:42.848Z,94971.91
2023-04-20T20:00:17.281Z,94965.63
2023-04-20T20:02:45.818Z,94958.47
2023-04-20T20:05:19.723Z,94963.03
2023-04-20T20:07:52.315Z,94972.53
2023-04-20T20:10:55.760Z,94963.53
2023-04-20T20:13:28.401Z,94963.13
2023-04-20T20:16:05.487Z,94966.06
2023-04-20T20:18:37.593Z,94957.38
2023-04-20T20:21:13.651Z,94965.13
2023-04-20T20:23:49.009Z,94930.06
2023-04-20T20:26:18.555Z,94955.88
2023-04-20T20:28:49.940Z,94972.09
2023-04-20T20:31:20.164Z,94975.47
2023-04-20T20:33:49.764Z,94959.69
2023-04-20T20:36:18.853Z,94979.13
2023-04-20T20:38:47.424Z,94967.00
2023-04-20T20:41:19.455Z,94960.53
2023-04-20T20:43:50.478Z,94975.09
2023-04-20T20:46:20.401Z,94970.84
2023-04-20T20:48:50.110Z,94972.03
2023-04-20T20:51:18.904Z,94946.88
2023-04-20T20:53:49.586Z,94971.56
2023-04-20T20:56:18.126Z,94974.28
2023-04-20T20:58:47.221Z,94972.53
2023-04-20T21:01:16.179Z,94974.75
2023-04-20T21:03:45.722Z,94971.19
2023-04-20T21:06:14.784Z,94966.91
2023-04-20T21:08:43.667Z,94964.38
2023-04-20T21:11:17.031Z,94948.56
2023-04-20T21:13:46.528Z,94967.44
2023-04-20T21:16:18.705Z,94971.44
2023-04-20T21:18:48.429Z,94972.13
2023-04-20T21:21:23.455Z,94965.84
2023-04-20T21:23:52.940Z,94969.69
2023-04-20T21:26:21.690Z,94969.69
2023-04-20T21:28:50.628Z,94971.25
2023-04-20T21:31:19.538Z,94962.81
2023-04-20T21:33:49.322Z,94961.84
2023-04-20T21:36:18.837Z,94965.84
2023-04-20T21:38:49.060Z,94947.78
2023-04-20T21:41:19.360Z,94968.97
2023-04-20T21:43:49.790Z,94969.97
2023-04-20T21:46:19.448Z,94948.16
2023-04-20T21:48:51.601Z,94968.59
2023-04-20T21:51:23.515Z,94969.38
2023-04-20T21:53:52.050Z,94960.31
2023-04-20T21:56:20.285Z,94964.56
2023-04-20T21:58:48.306Z,94965.34
2023-04-20T22:01:16.436Z,94970.94
2023-04-20T22:03:44.641Z,94977.94
2023-04-20T22:06:14.166Z,94972.53
2023-04-20T22:08:42.185Z,94970.94
2023-04-20T22:11:10.388Z,94975.47
2023-04-20T22:13:38.619Z,94966.16
2023-04-20T22:16:07.269Z,94956.00
2023-04-20T22:18:35.363Z,94977.25
2023-04-20T22:21:03.681Z,94978.19
2023-04-20T22:23:33.033Z,94978.50
2023-04-20T22:26:01.143Z,94977.97
2023-04-20T22:28:29.347Z,94976.28
2023-04-20T22:30:57.340Z,94968.06
2023-04-20T22:33:25.895Z,94972.81
2023-04-20T22:35:53.990Z,94971.03
2023-04-20T22:38:22.012Z,94966.53
2023-04-20T22:40:51.452Z,94952.63
2023-04-20T22:43:20.484Z,94972.59
2023-04-20T22:45:48.957Z,94964.06
2023-04-20T22:48:17.635Z,94944.66
2023-04-20T22:50:45.565Z,94945.09
2023-04-20T22:53:13.890Z,94968.13
2023-04-20T22:55:42.051Z,94956.66
2023-04-20T22:58:11.689Z,94939.31
2023-04-20T23:00:39.767Z,94961.94
2023-04-20T23:03:08.201Z,94953.28
2023-04-20T23:05:36.426Z,94968.34
2023-04-20T23:08:04.724Z,94953.47
2023-04-20T23:10:32.755Z,94963.34
2023-04-20T23:13:00.942Z,94960.66
2023-04-20T23:15:30.595Z,94959.38
2023-04-20T23:17:58.608Z,94958.25
2023-04-20T23:20:26.974Z,94957.56
2023-04-20T23:22:54.956Z,94915.97
2023-04-20T23:25:22.864Z,94908.91
2023-04-20T23:27:50.903Z,94934.06
2023-04-20T23:30:19.039Z,94939.91
2023-04-20T23:32:48.431Z,94920.56
2023-04-20T23:35:16.609Z,94947.56
2023-04-20T23:37:44.659Z,94941.13
2023-04-20T23:40:12.958Z,94942.13
2023-04-20T23:42:40.851Z,94928.66
2023-04-20T23:45:10.104Z,94945.91
2023-04-20T23:47:38.038Z,94929.69
2023-04-20T23:50:09.087Z,94938.13
2023-04-20T23:52:37.141Z,94938.66
2023-04-20T23:55:06.268Z,94932.16
2023-04-20T23:57:34.252Z,94941.16
